createdAt,value
2023-05-12T00:01:19.865Z,3.70
2023-05-12T00:03:46.819Z,4.00
2023-05-12T00:06:13.581Z,3.65
2023-05-12T00:08:40.056Z,4.10
2023-05-12T00:11:06.739Z,3.70
2023-05-12T00:13:33.306Z,3.75
2023-05-12T00:16:00.012Z,3.55
2023-05-12T00:18:28.343Z,4.35
2023-05-12T00:20:55.596Z,3.88
2023-05-12T00:23:22.711Z,4.47
2023-05-12T00:25:49.705Z,4.05
2023-05-12T00:28:17.660Z,4.40
2023-05-12T00:30:44.270Z,3.90
2023-05-12T00:33:11.003Z,4.82
2023-05-12T00:35:37.513Z,4.30
2023-05-12T00:38:04.007Z,4.47
2023-05-12T00:40:30.531Z,3.75
2023-05-12T00:42:56.992Z,4.45
2023-05-12T00:45:23.848Z,3.95
2023-05-12T00:47:52.096Z,3.70
2023-05-12T00:50:19.062Z,3.22
2023-05-12T00:52:47.152Z,4.03
2023-05-12T00:55:21.661Z,3.42
2023-05-12T00:57:48.165Z,3.70
2023-05-12T01:00:21.881Z,3.78
2023-05-12T01:02:49.061Z,3.25
2023-05-12T01:05:17.083Z,3.75
2023-05-12T01:07:46.643Z,3.40
2023-05-12T01:10:21.285Z,3.42
2023-05-12T01:12:48.409Z,3.88
2023-05-12T01:15:15.101Z,3.97
2023-05-12T01:17:47.165Z,4.05
2023-05-12T01:20:16.588Z,5.40
2023-05-12T01:22:43.300Z,3.95
2023-05-12T01:25:14.464Z,3.70
2023-05-12T01:27:42.572Z,3.95
2023-05-12T01:30:11.116Z,4.13
2023-05-12T01:32:39.281Z,4.10
2023-05-12T01:35:06.349Z,4.07
2023-05-12T01:37:32.928Z,4.47
2023-05-12T01:39:59.436Z,5.00
2023-05-12T01:42:25.917Z,5.28
2023-05-12T01:44:52.383Z,4.45
2023-05-12T01:47:18.971Z,4.43
2023-05-12T01:49:45.718Z,4.60
2023-05-12T01:52:12.253Z,6.35
2023-05-12T01:54:38.949Z,5.28
2023-05-12T01:57:11.292Z,4.88
2023-05-12T01:59:37.818Z,6.35
2023-05-12T02:02:04.519Z,5.47
2023-05-12T02:04:31.028Z,5.32
2023-05-12T02:06:57.490Z,5.00
2023-05-12T02:09:23.972Z,4.53
2023-05-12T02:11:50.569Z,5.70
2023-05-12T02:14:17.089Z,4.65
2023-05-12T02:16:43.915Z,4.97
2023-05-12T02:19:10.753Z,5.10
2023-05-12T02:21:37.256Z,5.72
2023-05-12T02:24:03.878Z,5.55
2023-05-12T02:26:36.195Z,5.47
2023-05-12T02:29:02.680Z,4.70
2023-05-12T02:31:29.169Z,6.57
2023-05-12T02:33:55.980Z,4.50
2023-05-12T02:36:22.474Z,4.32
2023-05-12T02:38:48.988Z,6.03
2023-05-12T02:41:15.442Z,4.85
2023-05-12T02:43:41.975Z,5.03
2023-05-12T02:46:08.501Z,4.30
2023-05-12T02:48:35.134Z,4.70
2023-05-12T02:51:01.603Z,4.80
2023-05-12T02:53:34.936Z,5.00
2023-05-12T02:56:01.492Z,4.68
2023-05-12T02:58:28.027Z,4.82
2023-05-12T03:01:06.591Z,4.75
2023-05-12T03:03:38.907Z,4.60
2023-05-12T03:06:06.336Z,4.80
2023-05-12T03:08:33.259Z,5.22
2023-05-12T03:11:00.846Z,4.97
2023-05-12T03:13:27.477Z,5.80
2023-05-12T03:15:55.778Z,6.03
2023-05-12T03:18:22.621Z,5.03
2023-05-12T03:20:49.140Z,6.13
2023-05-12T03:23:16.907Z,5.82
2023-05-12T03:25:43.588Z,4.93
2023-05-12T03:28:13.127Z,5.30
2023-05-12T03:30:39.632Z,4.72
2023-05-12T03:33:06.208Z,4.88
2023-05-12T03:35:32.682Z,5.78
2023-05-12T03:37:59.223Z,6.25
2023-05-12T03:40:25.881Z,5.80
2023-05-12T03:42:52.375Z,5.97
2023-05-12T03:45:19.077Z,6.82
2023-05-12T03:47:45.738Z,6.47
2023-05-12T03:50:12.843Z,4.85
2023-05-12T03:52:41.208Z,4.68
2023-05-12T03:55:08.218Z,4.70
2023-05-12T03:57:36.526Z,4.20
2023-05-12T04:00:06.988Z,4.22
2023-05-12T04:02:34.629Z,5.03
2023-05-12T04:05:01.243Z,5.05
2023-05-12T04:07:27.824Z,5.18
2023-05-12T04:09:54.313Z,4.78
2023-05-12T04:12:20.800Z,4.90
2023-05-12T04:14:48.363Z,5.13
2023-05-12T04:17:14.906Z,4.60
2023-05-12T04:19:42.776Z,5.32
2023-05-12T04:22:09.352Z,5.40
2023-05-12T04:24:37.657Z,4.53
2023-05-12T04:27:04.468Z,4.53
2023-05-12T04:29:31.926Z,4.05
2023-05-12T04:32:00.203Z,4.13
2023-05-12T04:34:26.727Z,3.90
2023-05-12T04:36:53.476Z,4.53
2023-05-12T04:39:30.276Z,4.72
2023-05-12T04:41:56.758Z,6.95
2023-05-12T04:44:24.292Z,6.47
2023-05-12T04:46:53.385Z,4.97
2023-05-12T04:49:19.906Z,5.03
2023-05-12T04:51:46.343Z,4.40
2023-05-12T04:54:14.835Z,5.07
2023-05-12T04:56:41.314Z,5.35
2023-05-12T04:59:07.842Z,4.50
2023-05-12T05:01:34.375Z,4.55
2023-05-12T05:04:00.868Z,4.10
2023-05-12T05:06:28.214Z,4.40
2023-05-12T05:08:56.034Z,4.60
2023-05-12T05:11:23.101Z,3.95
2023-05-12T05:13:49.689Z,3.80
2023-05-12T05:16:16.294Z,4.18
2023-05-12T05:18:46.770Z,4.38
2023-05-12T05:21:16.802Z,3.88
2023-05-12T05:23:43.286Z,4.60
2023-05-12T05:26:09.886Z,5.00
2023-05-12T05:28:37.365Z,5.15
2023-05-12T05:31:03.907Z,4.30
2023-05-12T05:33:30.401Z,4.40
2023-05-12T05:35:57.083Z,4.30
2023-05-12T05:38:23.623Z,4.00
2023-05-12T05:40:53.819Z,3.97
2023-05-12T05:43:21.991Z,3.87
2023-05-12T05:45:49.884Z,4.53
2023-05-12T05:48:16.580Z,4.22
2023-05-12T05:50:43.281Z,4.45
2023-05-12T05:53:09.770Z,3.70
2023-05-12T05:55:38.247Z,4.38
2023-05-12T05:58:05.565Z,4.35
2023-05-12T06:00:32.056Z,4.57
2023-05-12T06:02:58.901Z,3.83
2023-05-12T06:05:25.452Z,4.78
2023-05-12T06:07:55.115Z,3.65
2023-05-12T06:10:21.909Z,3.53
2023-05-12T06:12:51.706Z,3.60
2023-05-12T06:15:19.449Z,4.07
2023-05-12T06:17:46.201Z,3.80
2023-05-12T06:20:13.501Z,3.60
2023-05-12T06:22:42.363Z,4.03
2023-05-12T06:25:09.755Z,4.22
2023-05-12T06:27:36.696Z,3.67
2023-05-12T06:30:04.281Z,3.65
2023-05-12T06:32:30.904Z,4.10
2023-05-12T06:34:57.447Z,3.42
2023-05-12T06:37:23.918Z,3.92
2023-05-12T06:39:50.389Z,4.35
2023-05-12T06:42:16.870Z,4.10
2023-05-12T06:44:43.486Z,5.05
2023-05-12T06:47:14.953Z,4.10
2023-05-12T06:49:41.476Z,3.92
2023-05-12T06:52:10.029Z,4.10
2023-05-12T06:54:36.524Z,4.65
2023-05-12T06:57:03.005Z,5.05
2023-05-12T06:59:29.673Z,4.95
2023-05-12T07:01:56.164Z,4.00
2023-05-12T07:04:23.438Z,4.22
2023-05-12T07:06:56.868Z,4.50
2023-05-12T07:09:23.350Z,4.53
2023-05-12T07:11:49.862Z,3.70
2023-05-12T07:14:16.490Z,4.60
2023-05-12T07:16:43.022Z,4.00
2023-05-12T07:19:09.687Z,4.13
2023-05-12T07:21:41.848Z,3.90
2023-05-12T07:24:08.393Z,4.90
2023-05-12T07:26:34.902Z,4.53
2023-05-12T07:29:02.541Z,3.80
2023-05-12T07:31:29.192Z,3.80
2023-05-12T07:33:55.780Z,5.30
2023-05-12T07:36:22.350Z,4.78
2023-05-12T07:38:48.940Z,3.92
2023-05-12T07:41:15.503Z,4.72
2023-05-12T07:43:42.007Z,4.07
2023-05-12T07:46:08.878Z,4.40
2023-05-12T07:48:39.860Z,3.63
2023-05-12T07:51:07.893Z,3.50
2023-05-12T07:53:41.532Z,3.70
2023-05-12T07:56:08.315Z,3.03
2023-05-12T07:58:34.767Z,3.30
2023-05-12T08:01:05.987Z,3.55
2023-05-12T08:03:33.553Z,3.72
2023-05-12T08:06:00.363Z,3.50
2023-05-12T08:08:34.629Z,3.92
2023-05-12T08:11:01.107Z,4.00
2023-05-12T08:13:27.672Z,3.80
2023-05-12T08:15:54.182Z,4.30
2023-05-12T08:18:21.297Z,3.38
2023-05-12T08:20:50.192Z,3.63
2023-05-12T08:23:17.580Z,4.13
2023-05-12T08:25:44.606Z,3.50
2023-05-12T08:28:12.971Z,3.33
2023-05-12T08:30:39.816Z,4.00
2023-05-12T08:33:06.513Z,3.58
2023-05-12T08:35:33.121Z,4.40
2023-05-12T08:37:59.714Z,4.47
2023-05-12T08:40:29.757Z,4.15
2023-05-12T08:43:38.980Z,4.25
2023-05-12T08:46:06.189Z,3.78
2023-05-12T08:48:35.392Z,4.38
2023-05-12T08:51:03.324Z,3.30
2023-05-12T08:53:33.530Z,4.10
2023-05-12T08:57:09.852Z,4.13
2023-05-12T08:58:49.851Z,4.10
2023-05-12T09:01:18.025Z,4.40
2023-05-12T09:03:45.395Z,4.28
2023-05-12T09:06:13.356Z,3.55
2023-05-12T09:08:41.093Z,3.78
2023-05-12T09:11:12.521Z,3.55
2023-05-12T09:13:52.799Z,3.65
2023-05-12T09:16:24.159Z,3.97
2023-05-12T09:18:53.047Z,3.72
2023-05-12T09:21:20.108Z,3.85
2023-05-12T09:24:06.950Z,2.95
2023-05-12T09:26:49.336Z,3.55
2023-05-12T09:29:24.308Z,3.85
2023-05-12T09:31:58.685Z,3.20
2023-05-12T09:34:30.996Z,3.33
2023-05-12T09:37:00.028Z,3.35
2023-05-12T09:39:27.066Z,3.33
2023-05-12T09:41:53.937Z,3.08
2023-05-12T09:44:21.492Z,3.53
2023-05-12T09:46:49.056Z,3.50
2023-05-12T09:49:25.982Z,3.22
2023-05-12T09:51:59.900Z,3.42
2023-05-12T09:54:31.022Z,3.10
2023-05-12T09:57:00.406Z,2.53
2023-05-12T09:59:32.772Z,2.70
2023-05-12T10:02:01.574Z,2.70
2023-05-12T10:04:32.220Z,2.92
2023-05-12T10:06:59.531Z,3.00
2023-05-12T10:09:30.933Z,2.67
2023-05-12T10:11:58.239Z,2.28
2023-05-12T10:14:25.936Z,3.08
2023-05-12T10:16:53.974Z,2.60
2023-05-12T10:19:21.444Z,3.35
2023-05-12T10:21:48.840Z,2.90
2023-05-12T10:24:16.874Z,2.50
2023-05-12T10:26:44.772Z,2.40
2023-05-12T10:29:12.766Z,2.55
2023-05-12T10:31:40.075Z,2.22
2023-05-12T10:34:07.080Z,2.00
2023-05-12T10:36:50.929Z,2.00
2023-05-12T10:39:18.332Z,1.92
2023-05-12T10:41:44.813Z,1.75
2023-05-12T10:44:11.538Z,1.60
2023-05-12T10:46:38.565Z,1.80
2023-05-12T10:49:13.044Z,1.73
2023-05-12T10:51:42.498Z,1.42
2023-05-12T10:54:10.943Z,1.52
2023-05-12T10:56:38.380Z,1.45
2023-05-12T10:59:12.044Z,2.20
2023-05-12T11:01:42.963Z,2.03
2023-05-12T11:04:15.179Z,1.80
2023-05-12T11:06:44.969Z,1.60
2023-05-12T11:09:13.386Z,1.80
2023-05-12T11:11:40.482Z,1.98
2023-05-12T11:14:08.273Z,2.00
2023-05-12T11:16:41.125Z,1.80
2023-05-12T11:19:07.731Z,1.55
2023-05-12T11:21:34.651Z,1.48
2023-05-12T11:24:02.223Z,1.77
2023-05-12T11:26:30.050Z,1.70
2023-05-12T11:28:59.849Z,1.90
2023-05-12T11:31:26.813Z,1.83
2023-05-12T11:34:12.453Z,2.50
2023-05-12T11:36:42.401Z,1.85
2023-05-12T11:39:25.685Z,2.13
2023-05-12T11:41:59.354Z,2.00
2023-05-12T11:44:32.516Z,1.88
2023-05-12T11:47:11.715Z,2.10
2023-05-12T11:49:52.387Z,2.28
2023-05-12T11:52:20.486Z,2.10
2023-05-12T11:54:51.859Z,2.35
2023-05-12T11:57:35.155Z,2.20
2023-05-12T12:00:09.793Z,2.20
2023-05-12T12:02:43.280Z,2.38
2023-05-12T12:05:18.281Z,2.88
2023-05-12T12:07:45.264Z,1.92
2023-05-12T12:10:18.848Z,1.80
2023-05-12T12:12:46.031Z,1.90
2023-05-12T12:15:13.230Z,2.00
2023-05-12T12:17:40.895Z,2.10
2023-05-12T12:20:09.235Z,1.83
2023-05-12T12:22:36.087Z,2.05
2023-05-12T12:25:03.099Z,2.05
2023-05-12T12:27:29.685Z,2.15
2023-05-12T12:29:56.490Z,1.98
2023-05-12T12:32:22.988Z,2.30
2023-05-12T12:34:49.605Z,2.20
2023-05-12T12:37:17.303Z,1.90
2023-05-12T12:39:43.854Z,2.00
2023-05-12T12:42:10.361Z,1.95
2023-05-12T12:44:36.838Z,1.95
2023-05-12T12:47:03.718Z,1.80
2023-05-12T12:49:30.231Z,2.00
2023-05-12T12:51:56.734Z,1.88
2023-05-12T12:54:25.166Z,1.80
2023-05-12T12:56:51.701Z,2.10
2023-05-12T12:59:18.299Z,1.90
2023-05-12T13:01:44.843Z,2.00
2023-05-12T13:04:11.353Z,2.03
2023-05-12T13:06:37.805Z,2.30
2023-05-12T13:09:04.444Z,2.25
2023-05-12T13:11:31.016Z,2.03
2023-05-12T13:13:57.481Z,2.08
2023-05-12T13:16:23.958Z,2.28
2023-05-12T13:18:50.811Z,2.20
2023-05-12T13:21:18.883Z,1.80
2023-05-12T13:23:45.376Z,2.05
2023-05-12T13:26:11.934Z,1.80
2023-05-12T13:28:38.404Z,1.75
2023-05-12T13:31:06.179Z,2.10
2023-05-12T13:33:32.798Z,2.42
2023-05-12T13:35:59.380Z,2.17
2023-05-12T13:38:26.437Z,2.15
2023-05-12T13:40:54.446Z,2.30
2023-05-12T13:43:21.525Z,2.20
2023-05-12T13:45:48.126Z,2.80
2023-05-12T13:48:14.631Z,2.20
2023-05-12T13:50:41.468Z,2.08
2023-05-12T13:53:07.924Z,2.08
2023-05-12T13:55:40.653Z,1.85
2023-05-12T13:58:07.628Z,2.20
2023-05-12T14:00:34.150Z,2.00
2023-05-12T14:03:00.709Z,1.90
2023-05-12T14:05:27.500Z,2.25
2023-05-12T14:07:54.078Z,1.90
2023-05-12T14:10:20.598Z,2.15
2023-05-12T14:12:47.986Z,2.20
2023-05-12T14:15:29.644Z,2.28
2023-05-12T14:18:01.012Z,1.95
2023-05-12T14:20:27.541Z,1.85
2023-05-12T14:22:55.698Z,2.65
2023-05-12T14:25:23.980Z,2.08
2023-05-12T14:27:50.858Z,2.75
2023-05-12T14:30:17.943Z,2.15
2023-05-12T14:32:44.523Z,1.77
2023-05-12T14:35:11.001Z,1.90
2023-05-12T14:37:37.542Z,1.77
2023-05-12T14:40:05.430Z,2.20
2023-05-12T14:42:32.388Z,2.28
2023-05-12T14:44:59.346Z,2.28
2023-05-12T14:47:26.002Z,1.90
2023-05-12T14:49:52.556Z,2.10
2023-05-12T14:52:19.066Z,2.10
2023-05-12T14:54:45.629Z,1.77
2023-05-12T14:57:13.601Z,1.80
2023-05-12T14:59:41.273Z,1.63
2023-05-12T15:02:07.962Z,1.98
2023-05-12T15:04:34.569Z,1.60
2023-05-12T15:07:01.042Z,1.50
2023-05-12T15:09:27.575Z,1.40
2023-05-12T15:11:55.123Z,1.63
2023-05-12T15:14:21.896Z,1.50
2023-05-12T15:16:48.580Z,1.50
2023-05-12T15:19:17.517Z,1.52
2023-05-12T15:21:44.159Z,1.50
2023-05-12T15:24:10.629Z,1.70
2023-05-12T15:26:39.494Z,1.60
2023-05-12T15:29:07.294Z,2.00
2023-05-12T15:31:33.893Z,1.60
2023-05-12T15:34:00.590Z,1.67
2023-05-12T15:36:27.087Z,1.70
2023-05-12T15:38:56.632Z,1.40
2023-05-12T15:41:23.261Z,1.50
2023-05-12T15:43:49.725Z,1.52
2023-05-12T15:46:16.440Z,1.80
2023-05-12T15:48:42.934Z,1.58
2023-05-12T15:51:09.431Z,1.48
2023-05-12T15:53:36.261Z,1.50
2023-05-12T15:56:03.969Z,1.70
2023-05-12T15:58:30.748Z,1.40
2023-05-12T16:00:57.324Z,1.45
2023-05-12T16:03:24.026Z,1.40
2023-05-12T16:05:50.844Z,1.60
2023-05-12T16:08:17.732Z,1.65
2023-05-12T16:10:44.928Z,1.40
2023-05-12T16:13:11.581Z,1.33
2023-05-12T16:15:38.081Z,1.58
2023-05-12T16:18:09.102Z,1.50
2023-05-12T16:20:37.566Z,1.60
2023-05-12T16:23:04.022Z,1.40
2023-05-12T16:25:30.566Z,2.10
2023-05-12T16:27:57.136Z,1.30
2023-05-12T16:30:25.052Z,1.90
2023-05-12T16:32:51.586Z,1.50
2023-05-12T16:35:18.262Z,1.30
2023-05-12T16:37:44.906Z,1.05
2023-05-12T16:40:12.165Z,1.85
2023-05-12T16:42:39.689Z,1.30
2023-05-12T16:45:06.823Z,1.10
2023-05-12T16:47:33.375Z,1.30
2023-05-12T16:49:59.975Z,1.00
2023-05-12T16:52:26.891Z,1.08
2023-05-12T16:54:55.893Z,1.23
2023-05-12T16:57:22.403Z,1.20
2023-05-12T16:59:48.869Z,1.10
2023-05-12T17:02:15.889Z,1.30
2023-05-12T17:04:42.605Z,1.10
2023-05-12T17:07:09.685Z,1.00
2023-05-12T17:09:36.652Z,1.00
2023-05-12T17:12:04.551Z,1.02
2023-05-12T17:14:31.311Z,1.10
2023-05-12T17:16:57.865Z,1.05
2023-05-12T17:19:24.451Z,0.95
2023-05-12T17:21:50.913Z,1.00
2023-05-12T17:24:17.708Z,0.90
2023-05-12T17:26:44.862Z,1.10
2023-05-12T17:29:11.306Z,1.25
2023-05-12T17:31:38.657Z,1.10
2023-05-12T17:34:05.566Z,1.20
2023-05-12T17:36:33.012Z,1.10
2023-05-12T17:39:00.057Z,1.10
2023-05-12T17:41:28.919Z,1.10
2023-05-12T17:43:55.818Z,1.88
2023-05-12T17:46:23.010Z,1.60
2023-05-12T17:48:49.683Z,2.30
2023-05-12T17:51:16.301Z,0.82
2023-05-12T17:53:44.041Z,1.20
2023-05-12T17:56:11.535Z,1.30
2023-05-12T17:58:38.513Z,1.58
2023-05-12T18:01:05.094Z,19.52
2023-05-12T18:03:31.740Z,5.40
2023-05-12T18:05:58.243Z,3.30
2023-05-12T18:08:24.702Z,3.85
2023-05-12T18:10:51.217Z,4.65
2023-05-12T18:13:17.763Z,2.50
2023-05-12T18:15:44.273Z,1.10
2023-05-12T18:18:10.914Z,1.10
2023-05-12T18:20:37.759Z,1.23
2023-05-12T18:23:04.434Z,1.23
2023-05-12T18:25:31.232Z,0.70
2023-05-12T18:27:57.746Z,0.98
2023-05-12T18:30:24.192Z,0.90
2023-05-12T18:32:51.027Z,0.88
2023-05-12T18:35:18.041Z,1.00
2023-05-12T18:37:45.068Z,0.90
2023-05-12T18:40:12.183Z,0.80
2023-05-12T18:42:38.999Z,0.95
2023-05-12T18:45:06.167Z,0.98
2023-05-12T18:47:33.484Z,1.20
2023-05-12T18:50:00.095Z,1.00
2023-05-12T18:52:26.609Z,0.90
2023-05-12T18:54:54.045Z,0.93
2023-05-12T18:57:20.862Z,1.20
2023-05-12T18:59:47.356Z,0.80
2023-05-12T19:02:13.817Z,1.00
2023-05-12T19:04:40.501Z,0.90
2023-05-12T19:07:09.824Z,1.10
2023-05-12T19:09:37.234Z,1.00
2023-05-12T19:12:06.127Z,2.20
2023-05-12T19:14:32.869Z,10.13
2023-05-12T19:16:59.385Z,3.08
2023-05-12T19:19:25.885Z,5.25
2023-05-12T19:21:53.155Z,3.75
2023-05-12T19:24:19.645Z,8.70
2023-05-12T19:26:46.379Z,3.05
2023-05-12T19:29:12.991Z,2.83
2023-05-12T19:31:39.590Z,2.35
2023-05-12T19:34:07.080Z,1.40
2023-05-12T19:36:33.804Z,3.60
2023-05-12T19:39:00.497Z,2.08
2023-05-12T19:41:30.045Z,4.35
2023-05-12T19:43:56.626Z,7.95
2023-05-12T19:46:23.392Z,2.92
2023-05-12T19:48:51.005Z,8.10
2023-05-12T19:51:17.558Z,4.10
2023-05-12T19:53:44.474Z,5.38
2023-05-12T19:56:11.177Z,5.22
2023-05-12T19:58:38.367Z,3.33
2023-05-12T20:01:05.068Z,2.28
2023-05-12T20:03:32.939Z,1.50
2023-05-12T20:05:59.486Z,2.58
2023-05-12T20:08:25.968Z,1.88
2023-05-12T20:10:52.429Z,1.50
2023-05-12T20:13:18.892Z,1.42
2023-05-12T20:15:45.363Z,1.50
2023-05-12T20:18:14.607Z,1.77
2023-05-12T20:20:42.237Z,1.63
2023-05-12T20:23:08.968Z,1.30
2023-05-12T20:25:36.200Z,1.80
2023-05-12T20:28:03.008Z,1.92
2023-05-12T20:30:29.984Z,1.70
2023-05-12T20:32:56.670Z,2.10
2023-05-12T20:35:23.442Z,1.60
2023-05-12T20:37:50.611Z,1.70
2023-05-12T20:40:17.230Z,1.42
2023-05-12T20:42:49.011Z,1.90
2023-05-12T20:45:16.319Z,1.63
2023-05-12T20:47:42.917Z,1.58
2023-05-12T20:50:09.990Z,1.63
2023-05-12T20:52:40.097Z,1.60
2023-05-12T20:55:07.249Z,1.67
2023-05-12T20:57:34.060Z,1.63
2023-05-12T21:00:00.675Z,1.80
2023-05-12T21:02:28.616Z,1.65
2023-05-12T21:04:55.790Z,1.65
2023-05-12T21:07:22.384Z,1.90
2023-05-12T21:09:49.071Z,1.65
2023-05-12T21:12:15.498Z,1.58
2023-05-12T21:14:44.053Z,1.67
2023-05-12T21:17:12.105Z,1.42
2023-05-12T21:19:40.033Z,1.77
2023-05-12T21:22:07.922Z,1.83
2023-05-12T21:24:36.430Z,1.50
2023-05-12T21:27:04.214Z,1.50
2023-05-12T21:29:31.546Z,1.90
2023-05-12T21:31:58.150Z,1.20
2023-05-12T21:34:24.862Z,1.80
2023-05-12T21:36:51.705Z,1.58
2023-05-12T21:39:18.182Z,1.58
2023-05-12T21:41:44.670Z,1.65
2023-05-12T21:44:12.201Z,1.90
2023-05-12T21:46:38.860Z,1.70
2023-05-12T21:49:05.429Z,1.60
2023-05-12T21:51:34.536Z,1.38
2023-05-12T21:54:02.009Z,1.92
2023-05-12T21:56:28.588Z,1.70
2023-05-12T21:58:55.648Z,1.50
2023-05-12T22:01:22.165Z,1.75
2023-05-12T22:03:49.387Z,1.88
2023-05-12T22:06:15.967Z,1.95
2023-05-12T22:08:43.615Z,1.98
2023-05-12T22:11:10.774Z,2.00
2023-05-12T22:13:37.520Z,1.90
2023-05-12T22:16:04.320Z,2.00
2023-05-12T22:18:30.960Z,1.90
2023-05-12T22:20:57.518Z,1.80
2023-05-12T22:23:23.970Z,1.95
2023-05-12T22:25:50.652Z,2.47
2023-05-12T22:28:18.225Z,2.08
2023-05-12T22:30:44.655Z,2.05
2023-05-12T22:33:11.302Z,2.05
2023-05-12T22:35:37.938Z,2.10
2023-05-12T22:38:04.435Z,1.90
2023-05-12T22:40:31.339Z,2.30
2023-05-12T22:42:57.886Z,1.88
2023-05-12T22:45:25.444Z,1.60
2023-05-12T22:47:52.299Z,1.80
2023-05-12T22:50:19.256Z,1.92
2023-05-12T22:52:46.071Z,1.80
2023-05-12T22:55:12.645Z,2.00
2023-05-12T22:57:40.860Z,1.90
2023-05-12T23:00:07.881Z,1.83
2023-05-12T23:02:34.401Z,2.25
2023-05-12T23:05:01.148Z,1.90
2023-05-12T23:07:27.840Z,2.00
2023-05-12T23:09:54.285Z,1.85
2023-05-12T23:12:20.769Z,2.15
2023-05-12T23:14:47.283Z,1.70
2023-05-12T23:17:14.833Z,2.13
2023-05-12T23:19:41.395Z,2.10
2023-05-12T23:22:07.855Z,2.67
2023-05-12T23:24:36.054Z,2.60
2023-05-12T23:27:02.587Z,2.30
2023-05-12T23:29:29.076Z,2.72
2023-05-12T23:31:58.713Z,2.30
2023-05-12T23:34:25.828Z,2.42
2023-05-12T23:36:52.452Z,2.30
2023-05-12T23:39:18.995Z,2.28
2023-05-12T23:41:45.670Z,2.22
2023-05-12T23:44:12.929Z,2.22
2023-05-12T23:46:39.552Z,2.00
2023-05-12T23:49:06.426Z,2.67
2023-05-12T23:51:33.265Z,2.45
2023-05-12T23:54:00.062Z,2.70
2023-05-12T23:56:26.607Z,2.60
2023-05-12T23:58:53.137Z,2.30
